Flight Track Log - Related Links

Times and Time Zones

All times are in EDT time to prevent confusion due to time zone crossing. See the SWA3321 flight status page for this flight to view local times or setup timezone preferences in your user account.

Time Position Orientation Groundspeed Altitude Reporting Facility
EDT Latitude Longitude Course Direction KTS MPH feet Rate Location/Type
Thu 06:40:09 AM 42.9500 -71.4333 324° Northwest 144 166 1,300  Level KA90
Thu 06:40:57 AM 42.9833 -71.4667 324° Northwest 176 203 2,500 2,211 Climbing KA90
Thu 06:42:03 AM 43.0333 -71.5167 324° Northwest 211 243 5,500 2,315 Climbing KA90
Thu 06:44:01 AM 43.0894 -71.6383 302° West 207 238 9,600 2,263 Climbing Boston Center
Thu 06:44:58 AM 43.0983 -71.7064 280° West 191 220 12,100 2,400 Climbing Boston Center
Thu 06:46:01 AM 43.1136 -71.8086 282° West 238 274 14,400 2,281 Climbing Boston Center
Thu 06:46:59 AM 43.1222 -71.9111 277° West 290 334 16,700 2,390 Climbing Boston Center
Thu 06:47:59 AM 43.1311 -72.0275 276° West 314 361 19,100 1,955 Climbing Boston Center
Thu 06:49:11 AM 43.1419 -72.1583 277° West 331 381 21,000 2,107 Climbing Boston Center
Thu 06:50:10 AM 43.1506 -72.3233 274° West 356 410 23,700 2,450 Climbing Boston Center
Thu 06:51:11 AM 43.1589 -72.4714 274° West 376 433 25,900 1,934 Climbing Boston Center
Thu 06:52:11 AM 43.1608 -72.6136 271° West 381 438 27,600 1,800 Climbing Boston Center
Thu 06:53:11 AM 43.1564 -72.7589 268° West 386 444 29,500 1,820 Climbing Boston Center
Thu 06:54:13 AM 43.1478 -72.9011 265° West 381 438 31,300 1,765 Climbing Boston Center
Thu 06:55:10 AM 43.1428 -73.0433 267° West 386 444 33,000 1,729 Climbing Boston Center
Thu 06:56:11 AM 43.1358 -73.1828 266° West 386 444 34,700 1,537 Climbing Boston Center
Thu 06:57:11 AM 43.1306 -73.3219 267° West 381 438 36,100 1,412 Climbing Boston Center
Thu 06:58:10 AM 43.1192 -73.4556 263° West 375 432 37,500 950 Climbing Boston Center
Thu 06:59:11 AM 43.1114 -73.5919 266° West 365 420 38,000 248 Climbing Boston Center
Thu 07:00:11 AM 43.1058 -73.7283 267° West 365 420 38,000  Level Boston Center
Thu 07:01:13 AM 43.1000 -73.8647 267° West 365 420 38,000  Level Boston Center
Thu 07:02:11 AM 43.0942 -73.9983 267° West 365 420 38,000  Level Boston Center
Thu 07:03:10 AM 43.0839 -74.1344 264° West 365 420 38,000  Level Boston Center
Thu 07:04:10 AM 43.0778 -74.2678 266° West 365 420 38,000  Level Boston Center
Thu 07:05:13 AM 43.0714 -74.4014 266° West 365 420 38,000  Level Boston Center
Thu 07:06:10 AM 43.0647 -74.5347 266° West 365 420 38,000  Level Boston Center
Thu 07:07:13 AM 43.0558 -74.6708 265° West 365 420 38,000  Level Boston Center
Thu 07:08:10 AM 43.0492 -74.8039 266° West 360 414 38,000  Level Boston Center
Thu 07:09:10 AM 43.0400 -74.9344 265° West 360 414 38,000  Level Boston Center
Thu 07:10:10 AM 43.0306 -75.0789 265° West 360 414 38,000  Level Boston Center
Thu 07:11:12 AM 43.0211 -75.2147 265° West 360 414 38,000 -49 Level Boston Center
Thu 07:12:12 AM 43.0136 -75.3450 266° West 355 409 37,900  Descending Boston Center
Thu 07:13:10 AM 43.0039 -75.4808 264° West 355 409 38,000 50 Climbing Boston Center
Thu 07:14:11 AM 42.9772 -75.6103 254° West 355 409 38,000  Level Boston Center
Thu 07:15:11 AM 42.9486 -75.7422 254° West 355 409 38,000  Level Boston Center
Thu 07:16:12 AM 42.9197 -75.8739 253° West 360 414 38,000  Level Boston Center
Thu 07:17:12 AM 42.8925 -76.0083 255° West 360 414 38,000  Level Boston Center
Thu 07:19:09 AM 42.8342 -76.2708 253° West 373 429 38,000  Level Cleveland Center
Thu 07:20:09 AM 42.8056 -76.4000 253° West 367 422 38,000  Level Cleveland Center
Thu 07:21:09 AM 42.7769 -76.5322 254° West 367 422 38,000  Level Cleveland Center
Thu 07:22:09 AM 42.7461 -76.6669 253° West 367 422 38,000  Level Cleveland Center
Thu 07:23:09 AM 42.7150 -76.7992 252° West 367 422 38,000  Level Cleveland Center
Thu 07:24:09 AM 42.6858 -76.9308 253° West 367 422 38,000  Level Cleveland Center
Thu 07:25:09 AM 42.6567 -77.0625 253° West 367 422 38,000  Level Cleveland Center
Thu 07:26:09 AM 42.6272 -77.1939 253° West 367 422 38,000  Level Cleveland Center
Thu 07:27:09 AM 42.5956 -77.3253 252° West 367 422 38,000  Level Cleveland Center
Thu 07:28:09 AM 42.5639 -77.4567 252° West 367 422 38,000  Level Cleveland Center
Thu 07:29:09 AM 42.5361 -77.5878 254° West 367 422 38,000  Level Cleveland Center
Thu 07:30:09 AM 42.5058 -77.7189 253° West 367 422 38,000  Level Cleveland Center
Thu 07:31:09 AM 42.4736 -77.8497 252° West 367 422 38,000  Level Cleveland Center
Thu 07:32:09 AM 42.4453 -77.9775 253° West 367 422 38,000  Level Cleveland Center
Thu 07:33:09 AM 42.4128 -78.1111 252° West 367 422 38,000  Level Cleveland Center
Thu 07:34:09 AM 42.3822 -78.2417 252° West 367 422 38,000  Level Cleveland Center
Thu 07:35:09 AM 42.3517 -78.3747 253° West 367 422 38,000  Level Cleveland Center
Thu 07:36:09 AM 42.3225 -78.4939 252° West 367 422 38,000  Level Cleveland Center
Thu 07:37:09 AM 42.2894 -78.6239 251° West 367 422 38,000  Level Cleveland Center
Thu 07:38:09 AM 42.2561 -78.7597 252° West 367 422 38,000  Level Cleveland Center
Thu 07:39:09 AM 42.2228 -78.8953 252° West 372 428 38,000  Level Cleveland Center
Thu 07:40:09 AM 42.1892 -79.0306 252° West 378 435 38,000  Level Cleveland Center
Thu 07:41:09 AM 42.1700 -79.1656 259° West 378 435 38,000  Level Cleveland Center
Thu 07:42:09 AM 42.1531 -79.3061 261° West 378 435 38,000  Level Cleveland Center
Thu 07:43:09 AM 42.1378 -79.4436 262° West 378 435 38,000  Level Cleveland Center
Thu 07:44:09 AM 42.1203 -79.5811 260° West 372 428 38,000  Level Cleveland Center
Thu 07:45:09 AM 42.1028 -79.7183 260° West 372 428 38,000  Level Cleveland Center
Thu 07:46:09 AM 42.0869 -79.8558 261° West 372 428 38,000  Level Cleveland Center
Thu 07:47:09 AM 42.0669 -79.9931 259° West 372 428 38,000  Level Cleveland Center
Thu 07:48:09 AM 42.0508 -80.1303 261° West 372 428 38,000  Level Cleveland Center
Thu 07:49:09 AM 42.0325 -80.2700 260° West 372 428 38,000  Level Cleveland Center
Thu 07:50:09 AM 42.0119 -80.4211 260° West 372 428 38,000  Level Cleveland Center
Thu 07:51:09 AM 41.9953 -80.5608 261° West 372 428 38,000  Level Cleveland Center
Thu 07:52:09 AM 41.9744 -80.7006 259° West 372 428 38,000  Level Cleveland Center
Thu 07:53:09 AM 41.9597 -80.8372 262° West 377 434 38,000  Level Cleveland Center
Thu 07:54:09 AM 41.9406 -80.9767 260° West 377 434 38,000  Level Cleveland Center
Thu 07:55:09 AM 41.9192 -81.1106 258° West 369 425 38,000  Level Cleveland Center
Thu 07:56:09 AM 41.9017 -81.2472 260° West 374 430 38,000  Level Cleveland Center
Thu 07:57:09 AM 41.8842 -81.3836 260° West 374 430 38,000  Level Cleveland Center
Thu 07:58:09 AM 41.8644 -81.5144 259° West 374 430 38,000  Level Cleveland Center
Thu 07:59:09 AM 41.8444 -81.6506 259° West 374 430 38,000  Level Cleveland Center
Thu 08:00:09 AM 41.8264 -81.7869 260° West 374 430 38,000  Level Cleveland Center
Thu 08:01:09 AM 41.8064 -81.9175 258° West 369 425 38,000  Level Cleveland Center
Thu 08:02:09 AM 41.7881 -82.0481 259° West 369 425 38,000  Level Cleveland Center
Thu 08:03:09 AM 41.7675 -82.1783 258° West 369 425 38,000  Level Cleveland Center
Thu 08:04:09 AM 41.7531 -82.3117 262° West 369 425 38,000  Level Cleveland Center
Thu 08:05:09 AM 41.7386 -82.4419 262° West 369 425 38,000  Level Cleveland Center
Thu 08:06:09 AM 41.7258 -82.5725 263° West 369 425 38,000  Level Cleveland Center
Thu 08:07:09 AM 41.7108 -82.7083 262° West 369 425 38,000  Level Cleveland Center
Thu 08:08:09 AM 41.6958 -82.8411 261° West 369 425 38,000  Level Cleveland Center
Thu 08:09:09 AM 41.6806 -82.9742 261° West 369 425 38,000  Level Cleveland Center
Thu 08:10:09 AM 41.6653 -83.1042 261° West 369 425 38,000 -350 Level Cleveland Center
Thu 08:11:09 AM 41.6497 -83.2369 261° West 369 425 37,300 -800 Descending Cleveland Center
Thu 08:12:09 AM 41.6342 -83.3697 261° West 369 425 36,400 -950 Descending Cleveland Center
Thu 08:13:09 AM 41.6183 -83.5053 261° West 369 425 35,400 -700 Descending Cleveland Center
Thu 08:14:09 AM 41.6022 -83.6433 261° West 374 430 35,000 -200 Descending Cleveland Center
Thu 08:15:09 AM 41.5858 -83.7814 261° West 374 430 35,000  Level Cleveland Center
Thu 08:16:09 AM 41.5694 -83.9222 261° West 374 430 35,000  Level Cleveland Center
Thu 08:17:09 AM 41.5528 -84.0544 260° West 379 436 35,000  Level Cleveland Center
Thu 08:18:09 AM 41.5361 -84.1925 261° West 379 436 35,000 -391 Level Cleveland Center
Thu 08:19:58 AM 41.5083 -84.4267 261° West 370 426 33,900 -1,333 Descending Chicago Center
Thu 08:21:00 AM 41.4908 -84.5656 260° West 375 432 31,200 -1,902 Descending Chicago Center
Thu 08:22:01 AM 41.4833 -84.7117 266° West 398 458 30,000 -585 Descending Chicago Center
Thu 08:23:03 AM 41.4886 -84.8639 273° West 407 468 30,000  Level Chicago Center
Thu 08:24:05 AM 41.4944 -85.0206 273° West 419 482 30,000 -829 Level Chicago Center
Thu 08:25:06 AM 41.5000 -85.2086 272° West 421 484 28,300 -2,098 Descending Chicago Center
Thu 08:26:08 AM 41.5050 -85.3661 272° West 419 482 25,700 -2,081 Descending Chicago Center
Thu 08:27:10 AM 41.5097 -85.5206 272° West 403 464 24,000 -1,024 Descending Chicago Center
Thu 08:28:11 AM 41.5150 -85.6678 273° West 394 453 23,600 -1,171 Descending Chicago Center
Thu 08:29:13 AM 41.5186 -85.8014 272° West 357 411 21,600 -2,195 Descending Chicago Center
Thu 08:30:14 AM 41.5222 -85.9228 272° West 331 381 19,100 -2,244 Descending Chicago Center
Thu 08:31:16 AM 41.5253 -86.0397 272° West 317 365 17,000 -1,951 Descending Chicago Center
Thu 08:32:17 AM 41.5236 -86.1531 269° West 307 353 15,100 -1,902 Descending Chicago Center
Thu 08:33:19 AM 41.5236 -86.2692 270° West 312 359 13,100 -1,902 Descending Chicago Center
Thu 08:34:20 AM 41.5231 -86.3867 270° West 317 365 11,200 -1,415 Descending Chicago Center
Thu 08:35:22 AM 41.5222 -86.5028 269° West 315 362 10,200 -537 Descending Chicago Center
Thu 08:36:23 AM 41.5206 -86.6400 269° West 311 358 10,100 -49 Descending Chicago Center
Thu 08:37:25 AM 41.5206 -86.7419 270° West 317 365 10,100  Level Chicago Center
Thu 08:38:26 AM 41.5192 -86.8764 269° West 304 350 10,100 -683 Level Chicago Center
Thu 08:39:28 AM 41.5169 -86.9775 268° West 275 316 8,700 -1,561 Descending Chicago Center
Thu 08:40:29 AM 41.5250 -87.0794 276° West 278 320 6,900 -1,773 Descending Chicago Center
Thu 08:40:56 AM 41.5333 -87.1333 282° West 286 329 6,100 -621 Descending Chicago TRACON
Thu 08:41:56 AM 41.5500 -87.2333 283° West 267 307 6,000 -50 Descending Chicago TRACON
Thu 08:42:56 AM 41.5833 -87.3167 298° West 268 308 6,000 -50 Level Chicago TRACON
Thu 08:43:56 AM 41.6000 -87.4167 283° West 267 307 5,900 -424 Descending Chicago TRACON
Thu 08:44:35 AM 41.6092 -87.4828 281° West 267 307 5,300 -950 Descending Chicago Center
Thu 08:45:37 AM 41.6153 -87.5783 275° West 264 304 4,300 -683 Descending Chicago Center
Thu 08:46:38 AM 41.6194 -87.6772 273° West 266 306 3,900 -683 Descending Chicago Center
Thu 08:47:40 AM 41.6144 -87.7756 266° West 267 307 2,900 -683 Descending Chicago Center
Thu 08:48:41 AM 41.6111 -87.8667 267° West 261 300 2,500 -197 Descending Chicago Center
Thu 08:49:42 AM 41.6558 -87.9103 324° Northwest 234 269 2,500  Level Chicago Center
Thu 08:50:44 AM 41.6953 -87.8672 39° Northeast 198 228 2,500  Level Chicago Center
Thu 08:51:03 AM 41.7167 -87.8333 50° Northeast 183 211 2,500 -684 Level Chicago TRACON
Thu 08:52:03 AM 41.7500 -87.8000 37° Northeast 160 184 1,600 -750 Descending Chicago TRACON
Thu 08:53:03 AM 41.7667 -87.7667 56° Northeast 121 139 1,000 -600 Descending Chicago TRACON

Login

Don't have an account? Register now (free) for customized features, flight alerts, and more!